Simcha — PE7688 — position and weather

sailwx.info

Track history (hours):
 
Tides and Currents Weather Stations Pressure Air Temp Water Temp Dewpoint Dewpoint Depression Visibility Wind Speed Wind Dir Waves Ship Positions

Simcha

Last reported at 2017-Aug-14 04:29 UTC. Time now 2017-Aug-20 21:10 UTC.
Position N 50°54' E 007°01'.

Length 110 m.

MMSI: 244780014.

Date/timePositionNaut miles runAvg speedWind from/ knotsBaromVisibWave heightAir tempDewpointWater temp
2017-Aug-14 04:29N 50°54' E 007°01'2 4.5
2017-Aug-14 04:01N 50°55' E 006°58'16 1.6
2017-Aug-13 18:12N 51°10' E 006°50'2 4.7
2017-Aug-13 17:52N 51°09' E 006°49'1 3.8
2017-Aug-13 17:29N 51°10' E 006°48'2 3.9
2017-Aug-13 17:00N 51°11' E 006°45'2 4.3
2017-Aug-13 16:30N 51°13' E 006°44'1 2.4
2017-Aug-13 16:00N 51°13' E 006°46'10 3.3
2017-Aug-13 12:55N 51°23' E 006°44'2 4.9
2017-Aug-13 12:30N 51°25' E 006°44'2 4.8
2017-Aug-13 12:00N 51°28' E 006°43'2 4.0
2017-Aug-13 11:28N 51°29' E 006°41'7 3.1
2017-Aug-13 09:17N 51°35' E 006°36'2 5.6
2017-Aug-13 08:59N 51°37' E 006°35'2 4.7
2017-Aug-13 08:30N 51°39' E 006°36'2 5.0
2017-Aug-13 08:00N 51°40' E 006°32'6 4.3
2017-Aug-13 06:30N 51°45' E 006°25'4 5.1
2017-Aug-13 05:42N 51°47' E 006°19'1 6.0
2017-Aug-13 05:30N 51°48' E 006°19'3 6.0
2017-Aug-13 05:00N 51°50' E 006°15'3 5.3
2017-Aug-13 04:30N 51°50' E 006°11'3 5.6
2017-Aug-13 04:00N 51°51' E 006°07'3 5.7
2017-Aug-13 03:30N 51°52' E 006°03'0 0.0
2017-Aug-13 03:00N 51°52' E 006°03'2 3.3
2017-Aug-13 02:30N 51°53' E 006°00'2 4.5
2017-Aug-13 02:00N 51°52' E 005°57'2 4.9
2017-Aug-13 01:30N 51°51' E 005°53'3 5.1
2017-Aug-13 01:00N 51°52' E 005°49'31 5.9
2017-Aug-12 19:41N 51°49' E 004°58'2 8.7
2017-Aug-12 19:30N 51°50' E 004°56'5 9.5
2017-Aug-12 19:00N 51°49' E 004°48'5 9.9
2017-Aug-12 18:31N 51°49' E 004°40'4 8.1
2017-Aug-12 18:00N 51°49' E 004°34'5 9.7
2017-Aug-12 17:30N 51°50' E 004°26'5 9.6
2017-Aug-12 17:00N 51°52' E 004°19'4 8.6
2017-Aug-12 16:30N 51°54' E 004°13'510.6
2017-Aug-12 16:00N 51°56' E 004°05'2 3.1
2017-Aug-12 15:30N 51°56' E 004°02'0 0.0
2017-Aug-12 15:00N 51°56' E 004°02'0 0.0
2017-Aug-12 14:30N 51°56' E 004°02'0 0.0
2017-Aug-12 14:00N 51°56' E 004°02'0 0.5
2017-Aug-12 13:30N 51°56' E 004°02'0 0.0
2017-Aug-12 13:00N 51°56' E 004°02'0 0.0
2017-Aug-12 12:30N 51°56' E 004°02'0 0.0
2017-Aug-12 12:00N 51°56' E 004°02'0 0.0
2017-Aug-12 11:30N 51°56' E 004°02'0 0.0
2017-Aug-12 11:00N 51°56' E 004°02'0 0.0
2017-Aug-12 10:30N 51°56' E 004°02'0 0.0
2017-Aug-12 10:00N 51°56' E 004°02'0 0.0
2017-Aug-12 09:30N 51°56' E 004°02'0 0.0
2017-Aug-12 09:00N 51°56' E 004°02'0 0.0
2017-Aug-12 08:30N 51°56' E 004°02'0 0.0
2017-Aug-12 08:00N 51°56' E 004°02'0 0.0
2017-Aug-12 07:30N 51°56' E 004°02'0 0.0
2017-Aug-12 07:00N 51°56' E 004°02'0 0.0
2017-Aug-12 06:30N 51°56' E 004°02'0 0.0
2017-Aug-12 06:00N 51°56' E 004°02'0 0.0
2017-Aug-12 05:30N 51°56' E 004°02'0 0.0
2017-Aug-12 05:00N 51°56' E 004°02'0 0.0
2017-Aug-12 04:30N 51°56' E 004°02'0 0.0
2017-Aug-12 04:00N 51°56' E 004°02'0 0.0
2017-Aug-12 03:30N 51°56' E 004°02'0 0.0
2017-Aug-12 03:00N 51°56' E 004°02'0 0.0
2017-Aug-12 02:30N 51°56' E 004°02'0 0.0
2017-Aug-12 02:00N 51°56' E 004°02'0 0.0
2017-Aug-12 01:30N 51°56' E 004°02'0 0.0
2017-Aug-12 01:00N 51°56' E 004°02'0 0.0
2017-Aug-12 00:30N 51°56' E 004°02'0 0.0
2017-Aug-12 00:00N 51°56' E 004°02'0 0.0
2017-Aug-11 23:30N 51°56' E 004°02'0 0.0
2017-Aug-11 23:00N 51°56' E 004°02'0 0.0
2017-Aug-11 22:30N 51°56' E 004°02'0 0.0
2017-Aug-11 22:00N 51°56' E 004°02'0 0.0
2017-Aug-11 21:30N 51°56' E 004°02'0 0.0
2017-Aug-11 21:00N 51°56' E 004°02'0 0.0
2017-Aug-11 20:30N 51°56' E 004°02'0 0.0
2017-Aug-11 20:00N 51°56' E 004°02'0 0.0
2017-Aug-11 19:30N 51°56' E 004°02'2 4.4
2017-Aug-11 19:00N 51°56' E 004°06'5 9.2
2017-Aug-11 18:30N 51°54' E 004°12'3 6.9
2017-Aug-11 18:00N 51°52' E 004°17'3 6.3
2017-Aug-11 17:30N 51°51' E 004°21'3 5.9
2017-Aug-11 17:00N 51°50' E 004°26'3 6.4
2017-Aug-11 16:31N 51°50' E 004°31'3 6.8
2017-Aug-11 16:00N 51°48' E 004°36'3 5.9
2017-Aug-11 15:30N 51°46' E 004°37'0 0.0
2017-Aug-11 15:01N 51°46' E 004°37'0 0.1
2017-Aug-11 14:30N 51°46' E 004°38'4 0.3
2017-Aug-10 22:54N 51°41' E 004°36'0 0.5
2017-Aug-10 22:30N 51°41' E 004°36'0 0.2
2017-Aug-10 21:58N 51°41' E 004°36'2 4.6
2017-Aug-10 21:30N 51°43' E 004°37'4 8.7
2017-Aug-10 21:00N 51°48' E 004°37'1 2.5
2017-Aug-10 20:30N 51°48' E 004°39'2 4.0
2017-Aug-10 20:00N 51°49' E 004°42'4 7.2
2017-Aug-10 19:30N 51°49' E 004°48'0 0.1
2017-Aug-10 19:00N 51°49' E 004°48'0 0.0
2017-Aug-10 18:30N 51°49' E 004°48'0 0.0
2017-Aug-10 18:00N 51°49' E 004°48'0 0.0
2017-Aug-10 17:30N 51°49' E 004°48'0 0.0
2017-Aug-10 17:00N 51°49' E 004°48'0 0.0
2017-Aug-10 16:30N 51°49' E 004°48'0 0.0
2017-Aug-10 16:00N 51°49' E 004°48'0 0.0
2017-Aug-10 15:30N 51°49' E 004°48'0 0.0
2017-Aug-10 15:00N 51°49' E 004°48'0 0.0
2017-Aug-10 14:30N 51°49' E 004°48'0 0.0
2017-Aug-10 14:00N 51°49' E 004°48'0 0.0
2017-Aug-10 13:30N 51°49' E 004°48'0 0.0
2017-Aug-10 12:59N 51°49' E 004°48'0 0.0
2017-Aug-10 12:30N 51°49' E 004°48'0 0.0
2017-Aug-10 12:00N 51°49' E 004°48'0 0.0
2017-Aug-10 11:30N 51°49' E 004°48'0 0.0
2017-Aug-10 11:00N 51°49' E 004°48'0 0.0
2017-Aug-10 10:30N 51°49' E 004°48'0 0.0
2017-Aug-10 10:00N 51°49' E 004°48'0 0.0
2017-Aug-10 09:30N 51°49' E 004°48'0 0.0
2017-Aug-10 09:00N 51°49' E 004°48'0 0.0
2017-Aug-10 08:30N 51°49' E 004°48'0 0.0
2017-Aug-10 08:00N 51°49' E 004°48'0 0.0
2017-Aug-10 07:30N 51°49' E 004°48'0 0.0
2017-Aug-10 07:00N 51°49' E 004°48'0 0.0
2017-Aug-10 06:30N 51°49' E 004°48'0 0.0
2017-Aug-10 05:59N 51°49' E 004°48'0 0.0
2017-Aug-10 05:30N 51°49' E 004°48'0 0.0
2017-Aug-10 05:00N 51°49' E 004°48'0 0.0
2017-Aug-10 04:30N 51°49' E 004°48'0 0.0
2017-Aug-10 04:00N 51°49' E 004°48'0 0.0
2017-Aug-10 03:30N 51°49' E 004°48'2 4.8
2017-Aug-10 03:00N 51°49' E 004°44'3 6.3
2017-Aug-10 02:30N 51°48' E 004°39'0 0.8
2017-Aug-10 02:00N 51°49' E 004°39'4 7.6
2017-Aug-10 01:30N 51°49' E 004°45'1 1.3
2017-Aug-10 01:00N 51°49' E 004°46'1 1.9
2017-Aug-10 00:30N 51°49' E 004°48'2 4.4
2017-Aug-10 00:00N 51°49' E 004°51'4 8.6
2017-Aug-09 23:30N 51°49' E 004°58'26 8.2
2017-Aug-09 20:19N 51°54' E 005°40'3 9.3
2017-Aug-09 20:00N 51°53' E 005°44'5 9.2
2017-Aug-09 19:30N 51°51' E 005°51'4 7.3
2017-Aug-09 19:00N 51°52' E 005°57'3 6.6
2017-Aug-09 18:30N 51°52' E 006°02'0 0.7
2017-Aug-09 17:59N 51°52' E 006°03'3 6.2
2017-Aug-09 17:30N 51°51' E 006°07'5 9.3
2017-Aug-09 17:00N 51°50' E 006°14'5 9.0
2017-Aug-09 16:30N 51°47' E 006°19'4 8.1
2017-Aug-09 16:00N 51°45' E 006°25'5 7.6
2017-Aug-09 15:23N 51°41' E 006°28'3 8.5
2017-Aug-09 15:00N 51°40' E 006°33'3 6.5
2017-Aug-09 14:31N 51°37' E 006°36'7 6.7
2017-Aug-09 13:30N 51°31' E 006°42'3 6.3
2017-Aug-09 13:00N 51°28' E 006°42'34 6.3
2017-Aug-09 07:36N 50°56' E 006°58'1 9.8
2017-Aug-09 07:30N 50°55' E 006°58'  
Track history (hours):
 
Tides and Currents Weather Stations Pressure Air Temp Water Temp Dewpoint Dewpoint Depression Visibility Wind Speed Wind Dir Waves Ship Positions

Simcha

Last reported at 2017-Aug-14 04:29 UTC. Time now 2017-Aug-20 21:10 UTC.
Position N 50°54' E 007°01'.

Length 110 m.

MMSI: 244780014.

Date/timePositionNaut miles runAvg speedWind from/ knotsBaromVisibWave heightAir tempDewpointWater temp
2017-Aug-14 04:29N 50°54' E 007°01'2 4.5
2017-Aug-14 04:01N 50°55' E 006°58'16 1.6
2017-Aug-13 18:12N 51°10' E 006°50'2 4.7
2017-Aug-13 17:52N 51°09' E 006°49'1 3.8
2017-Aug-13 17:29N 51°10' E 006°48'2 3.9
2017-Aug-13 17:00N 51°11' E 006°45'2 4.3
2017-Aug-13 16:30N 51°13' E 006°44'1 2.4
2017-Aug-13 16:00N 51°13' E 006°46'10 3.3
2017-Aug-13 12:55N 51°23' E 006°44'2 4.9
2017-Aug-13 12:30N 51°25' E 006°44'2 4.8
2017-Aug-13 12:00N 51°28' E 006°43'2 4.0
2017-Aug-13 11:28N 51°29' E 006°41'7 3.1
2017-Aug-13 09:17N 51°35' E 006°36'2 5.6
2017-Aug-13 08:59N 51°37' E 006°35'2 4.7
2017-Aug-13 08:30N 51°39' E 006°36'2 5.0
2017-Aug-13 08:00N 51°40' E 006°32'6 4.3
2017-Aug-13 06:30N 51°45' E 006°25'4 5.1
2017-Aug-13 05:42N 51°47' E 006°19'1 6.0
2017-Aug-13 05:30N 51°48' E 006°19'3 6.0
2017-Aug-13 05:00N 51°50' E 006°15'3 5.3
2017-Aug-13 04:30N 51°50' E 006°11'3 5.6
2017-Aug-13 04:00N 51°51' E 006°07'3 5.7
2017-Aug-13 03:30N 51°52' E 006°03'0 0.0
2017-Aug-13 03:00N 51°52' E 006°03'2 3.3
2017-Aug-13 02:30N 51°53' E 006°00'2 4.5
2017-Aug-13 02:00N 51°52' E 005°57'2 4.9
2017-Aug-13 01:30N 51°51' E 005°53'3 5.1
2017-Aug-13 01:00N 51°52' E 005°49'31 5.9
2017-Aug-12 19:41N 51°49' E 004°58'2 8.7
2017-Aug-12 19:30N 51°50' E 004°56'5 9.5
2017-Aug-12 19:00N 51°49' E 004°48'5 9.9
2017-Aug-12 18:31N 51°49' E 004°40'4 8.1
2017-Aug-12 18:00N 51°49' E 004°34'5 9.7
2017-Aug-12 17:30N 51°50' E 004°26'5 9.6
2017-Aug-12 17:00N 51°52' E 004°19'4 8.6
2017-Aug-12 16:30N 51°54' E 004°13'510.6
2017-Aug-12 16:00N 51°56' E 004°05'2 3.1
2017-Aug-12 15:30N 51°56' E 004°02'0 0.0
2017-Aug-12 15:00N 51°56' E 004°02'0 0.0
2017-Aug-12 14:30N 51°56' E 004°02'0 0.0
2017-Aug-12 14:00N 51°56' E 004°02'0 0.5
2017-Aug-12 13:30N 51°56' E 004°02'0 0.0
2017-Aug-12 13:00N 51°56' E 004°02'0 0.0
2017-Aug-12 12:30N 51°56' E 004°02'0 0.0
2017-Aug-12 12:00N 51°56' E 004°02'0 0.0
2017-Aug-12 11:30N 51°56' E 004°02'0 0.0
2017-Aug-12 11:00N 51°56' E 004°02'0 0.0
2017-Aug-12 10:30N 51°56' E 004°02'0 0.0
2017-Aug-12 10:00N 51°56' E 004°02'0 0.0
2017-Aug-12 09:30N 51°56' E 004°02'0 0.0
2017-Aug-12 09:00N 51°56' E 004°02'0 0.0
2017-Aug-12 08:30N 51°56' E 004°02'0 0.0
2017-Aug-12 08:00N 51°56' E 004°02'0 0.0
2017-Aug-12 07:30N 51°56' E 004°02'0 0.0
2017-Aug-12 07:00N 51°56' E 004°02'0 0.0
2017-Aug-12 06:30N 51°56' E 004°02'0 0.0
2017-Aug-12 06:00N 51°56' E 004°02'0 0.0
2017-Aug-12 05:30N 51°56' E 004°02'0 0.0
2017-Aug-12 05:00N 51°56' E 004°02'0 0.0
2017-Aug-12 04:30N 51°56' E 004°02'0 0.0
2017-Aug-12 04:00N 51°56' E 004°02'0 0.0
2017-Aug-12 03:30N 51°56' E 004°02'0 0.0
2017-Aug-12 03:00N 51°56' E 004°02'0 0.0
2017-Aug-12 02:30N 51°56' E 004°02'0 0.0
2017-Aug-12 02:00N 51°56' E 004°02'0 0.0
2017-Aug-12 01:30N 51°56' E 004°02'0 0.0
2017-Aug-12 01:00N 51°56' E 004°02'0 0.0
2017-Aug-12 00:30N 51°56' E 004°02'0 0.0
2017-Aug-12 00:00N 51°56' E 004°02'0 0.0
2017-Aug-11 23:30N 51°56' E 004°02'0 0.0
2017-Aug-11 23:00N 51°56' E 004°02'0 0.0
2017-Aug-11 22:30N 51°56' E 004°02'0 0.0
2017-Aug-11 22:00N 51°56' E 004°02'0 0.0
2017-Aug-11 21:30N 51°56' E 004°02'0 0.0
2017-Aug-11 21:00N 51°56' E 004°02'0 0.0
2017-Aug-11 20:30N 51°56' E 004°02'0 0.0
2017-Aug-11 20:00N 51°56' E 004°02'0 0.0
2017-Aug-11 19:30N 51°56' E 004°02'2 4.4
2017-Aug-11 19:00N 51°56' E 004°06'5 9.2
2017-Aug-11 18:30N 51°54' E 004°12'3 6.9
2017-Aug-11 18:00N 51°52' E 004°17'3 6.3
2017-Aug-11 17:30N 51°51' E 004°21'3 5.9
2017-Aug-11 17:00N 51°50' E 004°26'3 6.4
2017-Aug-11 16:31N 51°50' E 004°31'3 6.8
2017-Aug-11 16:00N 51°48' E 004°36'3 5.9
2017-Aug-11 15:30N 51°46' E 004°37'0 0.0
2017-Aug-11 15:01N 51°46' E 004°37'0 0.1
2017-Aug-11 14:30N 51°46' E 004°38'4 0.3
2017-Aug-10 22:54N 51°41' E 004°36'0 0.5
2017-Aug-10 22:30N 51°41' E 004°36'0 0.2
2017-Aug-10 21:58N 51°41' E 004°36'2 4.6
2017-Aug-10 21:30N 51°43' E 004°37'4 8.7
2017-Aug-10 21:00N 51°48' E 004°37'1 2.5
2017-Aug-10 20:30N 51°48' E 004°39'2 4.0
2017-Aug-10 20:00N 51°49' E 004°42'4 7.2
2017-Aug-10 19:30N 51°49' E 004°48'0 0.1
2017-Aug-10 19:00N 51°49' E 004°48'0 0.0
2017-Aug-10 18:30N 51°49' E 004°48'0 0.0
2017-Aug-10 18:00N 51°49' E 004°48'0 0.0
2017-Aug-10 17:30N 51°49' E 004°48'0 0.0
2017-Aug-10 17:00N 51°49' E 004°48'0 0.0
2017-Aug-10 16:30N 51°49' E 004°48'0 0.0
2017-Aug-10 16:00N 51°49' E 004°48'0 0.0
2017-Aug-10 15:30N 51°49' E 004°48'0 0.0
2017-Aug-10 15:00N 51°49' E 004°48'0 0.0
2017-Aug-10 14:30N 51°49' E 004°48'0 0.0
2017-Aug-10 14:00N 51°49' E 004°48'0 0.0
2017-Aug-10 13:30N 51°49' E 004°48'0 0.0
2017-Aug-10 12:59N 51°49' E 004°48'0 0.0
2017-Aug-10 12:30N 51°49' E 004°48'0 0.0
2017-Aug-10 12:00N 51°49' E 004°48'0 0.0
2017-Aug-10 11:30N 51°49' E 004°48'0 0.0
2017-Aug-10 11:00N 51°49' E 004°48'0 0.0
2017-Aug-10 10:30N 51°49' E 004°48'0 0.0
2017-Aug-10 10:00N 51°49' E 004°48'0 0.0
2017-Aug-10 09:30N 51°49' E 004°48'0 0.0
2017-Aug-10 09:00N 51°49' E 004°48'0 0.0
2017-Aug-10 08:30N 51°49' E 004°48'0 0.0
2017-Aug-10 08:00N 51°49' E 004°48'0 0.0
2017-Aug-10 07:30N 51°49' E 004°48'0 0.0
2017-Aug-10 07:00N 51°49' E 004°48'0 0.0
2017-Aug-10 06:30N 51°49' E 004°48'0 0.0
2017-Aug-10 05:59N 51°49' E 004°48'0 0.0
2017-Aug-10 05:30N 51°49' E 004°48'0 0.0
2017-Aug-10 05:00N 51°49' E 004°48'0 0.0
2017-Aug-10 04:30N 51°49' E 004°48'0 0.0
2017-Aug-10 04:00N 51°49' E 004°48'0 0.0
2017-Aug-10 03:30N 51°49' E 004°48'2 4.8
2017-Aug-10 03:00N 51°49' E 004°44'3 6.3
2017-Aug-10 02:30N 51°48' E 004°39'0 0.8
2017-Aug-10 02:00N 51°49' E 004°39'4 7.6
2017-Aug-10 01:30N 51°49' E 004°45'1 1.3
2017-Aug-10 01:00N 51°49' E 004°46'1 1.9
2017-Aug-10 00:30N 51°49' E 004°48'2 4.4
2017-Aug-10 00:00N 51°49' E 004°51'4 8.6
2017-Aug-09 23:30N 51°49' E 004°58'26 8.2
2017-Aug-09 20:19N 51°54' E 005°40'3 9.3
2017-Aug-09 20:00N 51°53' E 005°44'5 9.2
2017-Aug-09 19:30N 51°51' E 005°51'4 7.3
2017-Aug-09 19:00N 51°52' E 005°57'3 6.6
2017-Aug-09 18:30N 51°52' E 006°02'0 0.7
2017-Aug-09 17:59N 51°52' E 006°03'3 6.2
2017-Aug-09 17:30N 51°51' E 006°07'5 9.3
2017-Aug-09 17:00N 51°50' E 006°14'5 9.0
2017-Aug-09 16:30N 51°47' E 006°19'4 8.1
2017-Aug-09 16:00N 51°45' E 006°25'5 7.6
2017-Aug-09 15:23N 51°41' E 006°28'3 8.5
2017-Aug-09 15:00N 51°40' E 006°33'3 6.5
2017-Aug-09 14:31N 51°37' E 006°36'7 6.7
2017-Aug-09 13:30N 51°31' E 006°42'3 6.3
2017-Aug-09 13:00N 51°28' E 006°42'34 6.3
2017-Aug-09 07:36N 50°56' E 006°58'1 9.8
2017-Aug-09 07:30N 50°55' E 006°58'  

Dump ship's entire track history